createdAt,value
2018-10-16T00:00:03.105Z,7.98
2018-10-16T00:16:44.609Z,7.54
2018-10-16T00:19:12.748Z,7.50
2018-10-16T00:21:41.424Z,7.36
2018-10-16T00:24:09.552Z,7.23
2018-10-16T00:26:37.688Z,7.22
2018-10-16T00:29:05.840Z,7.24
2018-10-16T00:31:33.968Z,7.22
2018-10-16T00:34:02.113Z,7.22
2018-10-16T00:36:30.272Z,7.27
2018-10-16T00:38:58.402Z,7.29
2018-10-16T00:41:26.575Z,7.26
2018-10-16T00:43:54.713Z,7.24
2018-10-16T00:46:22.957Z,7.22
2018-10-16T00:48:51.241Z,7.27
2018-10-16T00:51:19.366Z,7.39
2018-10-16T00:53:47.875Z,7.51
2018-10-16T00:56:16.053Z,7.46
2018-10-16T00:58:44.193Z,7.27
2018-10-16T01:01:12.336Z,7.27
2018-10-16T01:03:40.463Z,7.49
2018-10-16T01:06:09.159Z,7.66
2018-10-16T01:08:37.286Z,7.52
2018-10-16T01:11:09.218Z,7.43
2018-10-16T01:13:37.341Z,7.33
2018-10-16T01:16:05.869Z,7.28
2018-10-16T01:18:34.006Z,7.25
2018-10-16T01:21:02.178Z,7.16
2018-10-16T01:23:30.348Z,7.13
2018-10-16T01:25:58.483Z,6.94
2018-10-16T01:28:26.614Z,6.88
2018-10-16T01:30:54.754Z,6.88
2018-10-16T01:33:22.878Z,6.83
2018-10-16T01:35:51.030Z,6.94
2018-10-16T01:38:19.197Z,6.84
2018-10-16T01:40:47.332Z,6.74
2018-10-16T01:43:15.479Z,6.78
2018-10-16T01:45:43.611Z,6.64
2018-10-16T01:48:11.783Z,6.68
2018-10-16T01:50:39.915Z,6.66
2018-10-16T01:53:08.053Z,6.72
2018-10-16T01:55:36.186Z,6.91
2018-10-16T01:58:04.329Z,6.91
2018-10-16T02:00:32.452Z,6.71
2018-10-16T02:03:00.589Z,6.60
2018-10-16T02:05:28.722Z,6.57
2018-10-16T02:07:56.901Z,6.89
2018-10-16T02:10:25.133Z,7.31
2018-10-16T02:12:53.284Z,7.05
2018-10-16T02:15:21.495Z,7.00
2018-10-16T02:17:49.607Z,6.80
2018-10-16T02:20:17.748Z,6.41
2018-10-16T02:22:45.886Z,6.29
2018-10-16T02:25:14.028Z,6.27
2018-10-16T02:27:42.183Z,6.34
2018-10-16T02:30:10.315Z,6.51
2018-10-16T02:32:38.515Z,6.69
2018-10-16T02:35:07.233Z,6.68
2018-10-16T02:37:35.380Z,6.57
2018-10-16T02:40:03.685Z,6.48
2018-10-16T02:42:31.809Z,6.36
2018-10-16T02:44:59.947Z,6.12
2018-10-16T02:47:28.081Z,6.19
2018-10-16T02:49:56.330Z,6.28
2018-10-16T02:52:24.467Z,6.26
2018-10-16T02:54:52.605Z,6.18
2018-10-16T02:57:21.261Z,6.17
2018-10-16T02:59:49.400Z,6.16
2018-10-16T03:02:17.520Z,6.12
2018-10-16T03:04:45.649Z,6.09
2018-10-16T03:07:13.875Z,6.04
2018-10-16T03:09:41.919Z,6.02
2018-10-16T03:12:10.046Z,6.01
2018-10-16T03:14:38.190Z,6.11
2018-10-16T03:17:06.339Z,6.06
2018-10-16T03:19:34.477Z,6.01
2018-10-16T03:22:02.802Z,5.89
2018-10-16T03:24:30.948Z,5.78
2018-10-16T03:26:59.132Z,5.60
2018-10-16T03:29:27.289Z,5.60
2018-10-16T03:31:55.417Z,5.49
2018-10-16T03:34:23.554Z,5.65
2018-10-16T03:36:51.695Z,5.70
2018-10-16T03:39:19.884Z,5.72
2018-10-16T03:41:48.027Z,5.69
2018-10-16T03:44:17.593Z,5.77
2018-10-16T03:46:45.727Z,5.83
2018-10-16T03:49:13.858Z,5.81
2018-10-16T03:51:42.110Z,5.82
2018-10-16T03:54:10.677Z,5.81
2018-10-16T03:56:38.799Z,5.97
2018-10-16T03:59:07.145Z,5.91
2018-10-16T04:01:35.272Z,5.91
2018-10-16T04:04:03.414Z,5.88
2018-10-16T04:06:31.716Z,5.82
2018-10-16T04:08:59.806Z,5.68
2018-10-16T04:11:27.995Z,5.57
2018-10-16T04:13:56.257Z,5.54
2018-10-16T04:16:24.371Z,5.51
2018-10-16T04:18:52.500Z,5.43
2018-10-16T04:21:20.703Z,5.39
2018-10-16T04:23:48.851Z,5.29
2018-10-16T04:29:07.763Z,5.29
2018-10-16T04:31:35.945Z,5.01
2018-10-16T04:34:04.195Z,5.14
2018-10-16T04:36:32.386Z,5.19
2018-10-16T04:39:00.542Z,5.25
2018-10-16T04:41:29.176Z,5.32
2018-10-16T04:43:57.331Z,5.33
2018-10-16T04:46:28.477Z,5.24
2018-10-16T04:48:56.725Z,5.31
2018-10-16T04:51:24.905Z,5.35
2018-10-16T04:53:53.097Z,5.49
2018-10-16T04:56:21.265Z,5.37
2018-10-16T04:58:49.420Z,5.36
2018-10-16T05:01:17.588Z,5.37
2018-10-16T05:03:45.745Z,5.34
2018-10-16T05:06:13.915Z,5.57
2018-10-16T05:08:42.072Z,5.38
2018-10-16T05:11:10.237Z,5.12
2018-10-16T05:13:38.926Z,5.13
2018-10-16T05:16:07.529Z,5.11
2018-10-16T05:18:35.741Z,5.10
2018-10-16T05:21:03.900Z,5.08
2018-10-16T05:23:32.047Z,5.14
2018-10-16T05:26:00.243Z,5.12
2018-10-16T05:28:28.423Z,5.13
2018-10-16T05:30:56.606Z,5.11
2018-10-16T05:33:25.579Z,5.10
2018-10-16T05:35:53.727Z,5.09
2018-10-16T05:38:21.944Z,5.00
2018-10-16T05:40:50.093Z,4.97
2018-10-16T05:43:18.248Z,4.98
2018-10-16T05:45:46.898Z,5.16
2018-10-16T05:48:15.236Z,5.46
2018-10-16T05:50:43.438Z,5.66
2018-10-16T05:53:11.687Z,5.43
2018-10-16T05:55:39.831Z,5.77
2018-10-16T05:58:08.074Z,5.56
2018-10-16T06:00:40.528Z,5.19
2018-10-16T06:03:08.797Z,4.90
2018-10-16T06:05:36.973Z,4.88
2018-10-16T06:08:05.462Z,4.85
2018-10-16T06:10:33.682Z,4.79
2018-10-16T06:13:01.847Z,4.83
2018-10-16T06:15:29.989Z,4.90
2018-10-16T06:18:00.192Z,4.95
2018-10-16T06:20:28.393Z,5.08
2018-10-16T06:22:56.541Z,5.11
2018-10-16T06:25:24.725Z,5.11
2018-10-16T06:27:52.947Z,5.10
2018-10-16T06:30:21.142Z,5.14
2018-10-16T06:32:49.229Z,5.08
2018-10-16T06:35:17.401Z,5.27
2018-10-16T06:37:46.345Z,5.78
2018-10-16T06:40:14.514Z,6.03
2018-10-16T06:42:42.660Z,6.23
2018-10-16T06:45:11.333Z,6.52
2018-10-16T06:47:39.657Z,6.85
2018-10-16T06:50:10.002Z,7.10
2018-10-16T06:52:38.189Z,7.48
2018-10-16T06:55:06.398Z,7.83
2018-10-16T06:57:34.566Z,8.50
2018-10-16T07:00:02.732Z,9.53
2018-10-16T07:02:30.976Z,10.37
2018-10-16T07:04:59.665Z,10.45
2018-10-16T07:07:28.002Z,10.43
2018-10-16T07:09:56.065Z,10.28
2018-10-16T07:12:24.337Z,10.59
2018-10-16T07:14:52.588Z,10.67
2018-10-16T07:17:20.708Z,10.54
2018-10-16T07:19:49.413Z,10.88
2018-10-16T07:22:17.612Z,11.32
2018-10-16T07:24:45.765Z,11.93
2018-10-16T07:27:13.941Z,12.56
2018-10-16T07:29:42.096Z,12.80
2018-10-16T07:32:10.255Z,13.17
2018-10-16T07:34:39.385Z,13.84
2018-10-16T07:37:07.546Z,14.07
2018-10-16T07:39:35.773Z,14.03
2018-10-16T07:42:03.995Z,14.13
2018-10-16T07:44:32.172Z,14.75
2018-10-16T07:47:00.343Z,15.02
2018-10-16T07:49:28.497Z,15.13
2018-10-16T07:51:56.661Z,15.52
2018-10-16T07:54:24.871Z,15.77
2018-10-16T07:56:53.024Z,16.17
2018-10-16T07:59:21.195Z,16.08
2018-10-16T08:01:49.392Z,16.38
2018-10-16T08:04:17.562Z,16.92
2018-10-16T08:06:45.735Z,17.08
2018-10-16T08:09:16.017Z,17.04
2018-10-16T08:11:44.458Z,17.11
2018-10-16T08:14:13.348Z,17.09
2018-10-16T08:16:41.597Z,17.12
2018-10-16T08:19:09.773Z,16.89
2018-10-16T08:21:37.915Z,16.80
2018-10-16T08:24:06.389Z,16.67
2018-10-16T08:26:34.514Z,16.39
2018-10-16T08:29:02.701Z,16.53
2018-10-16T08:31:30.945Z,16.53
2018-10-16T08:33:59.104Z,16.73
2018-10-16T08:36:27.510Z,16.53
2018-10-16T08:39:29.484Z,16.49
2018-10-16T08:44:16.721Z,16.57
2018-10-16T08:46:56.264Z,16.60
2018-10-16T08:49:36.648Z,16.58
2018-10-16T08:52:04.768Z,16.29
2018-10-16T08:54:32.888Z,16.76
2018-10-16T08:57:01.058Z,16.95
2018-10-16T08:59:29.180Z,16.72
2018-10-16T09:01:57.311Z,17.01
2018-10-16T09:04:25.823Z,17.35
2018-10-16T09:06:54.004Z,17.48
2018-10-16T09:09:22.894Z,17.54
2018-10-16T09:11:51.013Z,17.63
2018-10-16T09:14:19.207Z,17.91
2018-10-16T09:16:47.289Z,18.17
2018-10-16T09:19:15.464Z,18.12
2018-10-16T09:21:43.585Z,18.04
2018-10-16T09:24:12.646Z,18.19
2018-10-16T09:26:40.780Z,18.44
2018-10-16T09:29:08.903Z,18.73
2018-10-16T09:31:37.063Z,19.00
2018-10-16T09:34:05.217Z,18.41
2018-10-16T09:36:33.390Z,18.09
2018-10-16T09:39:02.410Z,18.28
2018-10-16T09:41:30.543Z,18.44
2018-10-16T09:43:58.655Z,18.47
2018-10-16T09:46:26.820Z,18.69
2018-10-16T09:48:54.937Z,18.73
2018-10-16T09:51:23.157Z,18.99
2018-10-16T09:53:51.389Z,19.04
2018-10-16T09:56:19.519Z,18.77
2018-10-16T09:58:47.640Z,18.47
2018-10-16T10:01:21.220Z,18.17
2018-10-16T10:03:49.337Z,18.16
2018-10-16T10:06:17.529Z,18.27
2018-10-16T10:08:45.714Z,18.38
2018-10-16T10:11:13.851Z,18.39
2018-10-16T10:13:41.962Z,18.54
2018-10-16T10:16:10.154Z,18.83
2018-10-16T10:18:38.272Z,19.00
2018-10-16T10:21:06.392Z,19.96
2018-10-16T10:23:34.583Z,20.91
2018-10-16T10:26:02.706Z,21.46
2018-10-16T10:28:30.835Z,21.18
2018-10-16T10:30:59.569Z,21.23
2018-10-16T10:33:27.693Z,21.36
2018-10-16T10:35:55.814Z,21.58
2018-10-16T10:38:23.962Z,22.29
2018-10-16T10:40:52.077Z,22.61
2018-10-16T10:43:21.056Z,23.07
2018-10-16T10:45:49.174Z,23.08
2018-10-16T10:48:17.299Z,23.07
2018-10-16T10:50:47.112Z,23.40
2018-10-16T10:53:15.025Z,23.52
2018-10-16T10:55:43.148Z,23.74
2018-10-16T10:58:11.350Z,23.65
2018-10-16T11:00:39.456Z,23.80
2018-10-16T11:03:07.645Z,23.75
2018-10-16T11:05:35.788Z,23.74
2018-10-16T11:08:03.908Z,23.32
2018-10-16T11:10:32.037Z,23.60
2018-10-16T11:13:00.204Z,23.27
2018-10-16T11:15:28.330Z,22.92
2018-10-16T11:17:56.450Z,22.44
2018-10-16T11:20:24.597Z,22.58
2018-10-16T11:22:52.703Z,22.07
2018-10-16T11:25:20.831Z,22.16
2018-10-16T11:27:48.965Z,22.23
2018-10-16T11:30:17.130Z,22.48
2018-10-16T11:32:45.222Z,22.39
2018-10-16T11:35:14.569Z,22.46
2018-10-16T11:37:42.922Z,22.51
2018-10-16T11:40:11.434Z,22.54
2018-10-16T11:42:40.293Z,22.62
2018-10-16T11:45:08.558Z,22.77
2018-10-16T11:47:37.263Z,22.90
2018-10-16T11:50:06.355Z,22.79
2018-10-16T11:52:34.505Z,22.80
2018-10-16T11:55:02.630Z,22.79
2018-10-16T11:57:30.804Z,23.13
2018-10-16T11:59:58.939Z,23.09
2018-10-16T12:02:27.124Z,23.03
2018-10-16T12:04:55.334Z,23.05
2018-10-16T12:07:23.455Z,23.26
2018-10-16T12:09:51.628Z,23.39
2018-10-16T12:12:19.778Z,23.37
2018-10-16T12:14:47.901Z,23.38
2018-10-16T12:17:21.482Z,23.35
2018-10-16T12:19:53.827Z,23.66
2018-10-16T12:22:21.890Z,23.64
2018-10-16T12:24:50.133Z,23.81
2018-10-16T12:27:18.256Z,23.78
2018-10-16T12:29:46.386Z,23.87
2018-10-16T12:32:14.563Z,23.80
2018-10-16T12:34:42.632Z,23.78
2018-10-16T12:37:10.840Z,24.06
2018-10-16T12:39:42.003Z,24.07
2018-10-16T12:42:10.133Z,24.25
2018-10-16T12:44:38.300Z,24.16
2018-10-16T12:47:06.635Z,24.33
2018-10-16T12:49:34.747Z,24.38
2018-10-16T12:52:03.117Z,24.41
2018-10-16T12:54:31.259Z,24.18
2018-10-16T12:56:59.466Z,24.28
2018-10-16T12:59:27.567Z,24.19
2018-10-16T13:01:55.720Z,24.10
2018-10-16T13:04:23.861Z,24.20
2018-10-16T13:06:53.139Z,24.20
2018-10-16T13:09:21.274Z,24.17
2018-10-16T13:11:49.434Z,24.07
2018-10-16T13:14:17.669Z,24.09
2018-10-16T13:16:45.834Z,24.08
2018-10-16T13:19:13.930Z,24.23
2018-10-16T13:21:42.093Z,24.09
2018-10-16T13:24:10.241Z,24.07
2018-10-16T13:26:38.391Z,24.00
2018-10-16T13:29:06.572Z,23.89
2018-10-16T13:31:34.683Z,23.95
2018-10-16T13:34:02.849Z,23.90
2018-10-16T13:36:32.247Z,23.86
2018-10-16T13:39:00.389Z,23.74
2018-10-16T13:41:28.545Z,23.71
2018-10-16T13:43:56.714Z,23.66
2018-10-16T13:46:24.988Z,23.63
2018-10-16T13:48:53.148Z,23.61
2018-10-16T13:51:21.289Z,23.52
2018-10-16T13:53:49.414Z,23.54
2018-10-16T13:56:17.574Z,23.56
2018-10-16T13:58:45.786Z,23.61
2018-10-16T14:01:13.924Z,23.59
2018-10-16T14:03:42.965Z,23.57
2018-10-16T14:06:11.110Z,23.73
2018-10-16T14:08:39.250Z,23.57
2018-10-16T14:11:08.508Z,23.58
2018-10-16T14:13:36.656Z,23.62
2018-10-16T14:16:05.253Z,23.73
2018-10-16T14:18:33.353Z,23.66
2018-10-16T14:21:01.478Z,23.71
2018-10-16T14:23:29.682Z,23.73
2018-10-16T14:25:57.832Z,23.66
2018-10-16T14:28:26.040Z,23.70
2018-10-16T14:30:54.245Z,23.69
2018-10-16T14:33:22.403Z,23.80
2018-10-16T14:35:50.580Z,23.66
2018-10-16T14:38:18.902Z,23.59
2018-10-16T14:40:47.049Z,23.55
2018-10-16T14:43:15.192Z,23.63
2018-10-16T14:45:43.453Z,23.58
2018-10-16T14:48:11.668Z,23.68
2018-10-16T14:50:39.743Z,23.64
2018-10-16T14:53:10.326Z,23.54
2018-10-16T14:55:38.462Z,23.57
2018-10-16T14:58:06.689Z,23.46
2018-10-16T15:00:34.768Z,23.49
2018-10-16T15:03:02.909Z,23.44
2018-10-16T15:05:31.048Z,23.31
2018-10-16T15:07:59.229Z,23.31
2018-10-16T15:10:27.433Z,23.25
2018-10-16T15:12:55.513Z,23.19
2018-10-16T15:15:23.703Z,23.23
2018-10-16T15:17:51.829Z,23.30
2018-10-16T15:20:20.024Z,23.27
2018-10-16T15:22:48.241Z,23.17
2018-10-16T15:25:16.386Z,22.60
2018-10-16T15:27:44.569Z,22.52
2018-10-16T15:30:12.773Z,22.09
2018-10-16T15:32:40.923Z,21.56
2018-10-16T15:35:10.195Z,21.50
2018-10-16T15:37:38.659Z,21.65
2018-10-16T15:40:08.050Z,21.68
2018-10-16T15:42:36.144Z,21.75
2018-10-16T15:45:04.759Z,21.79
2018-10-16T15:47:32.897Z,21.78
2018-10-16T15:50:01.128Z,21.72
2018-10-16T15:52:29.227Z,21.57
2018-10-16T15:54:57.390Z,21.23
2018-10-16T15:57:25.592Z,20.88
2018-10-16T16:00:00.106Z,20.73
2018-10-16T16:02:28.352Z,20.80
2018-10-16T16:04:56.489Z,20.63
2018-10-16T16:07:24.623Z,20.53
2018-10-16T16:09:52.924Z,20.25
2018-10-16T16:12:21.076Z,20.08
2018-10-16T16:14:49.189Z,20.06
2018-10-16T16:17:17.415Z,20.03
2018-10-16T16:19:45.583Z,19.86
2018-10-16T16:22:13.779Z,19.80
2018-10-16T16:24:41.897Z,19.70
2018-10-16T16:27:10.047Z,19.61
2018-10-16T16:29:38.192Z,19.54
2018-10-16T16:32:07.641Z,19.48
2018-10-16T16:34:35.785Z,19.44
2018-10-16T16:37:03.929Z,19.39
2018-10-16T16:39:32.157Z,19.09
2018-10-16T16:42:00.335Z,18.96
2018-10-16T16:44:28.477Z,18.91
2018-10-16T16:46:57.085Z,18.90
2018-10-16T16:49:25.207Z,18.88
2018-10-16T16:51:53.376Z,18.79
2018-10-16T16:54:22.839Z,18.60
2018-10-16T16:56:50.980Z,18.32
2018-10-16T16:59:19.114Z,17.95
2018-10-16T17:01:47.313Z,17.72
2018-10-16T17:04:15.478Z,17.54
2018-10-16T17:06:43.882Z,17.38
2018-10-16T17:09:12.996Z,17.18
2018-10-16T17:11:41.169Z,17.13
2018-10-16T17:14:09.619Z,17.03
2018-10-16T17:16:38.162Z,16.94
2018-10-16T17:19:06.607Z,16.88
2018-10-16T17:21:34.741Z,16.73
2018-10-16T17:24:02.975Z,16.71
2018-10-16T17:26:31.143Z,16.42
2018-10-16T17:28:59.262Z,16.12
2018-10-16T17:31:28.179Z,16.19
2018-10-16T17:33:56.328Z,16.24
2018-10-16T17:36:24.508Z,16.19
2018-10-16T17:38:52.689Z,16.30
2018-10-16T17:41:20.777Z,16.25
2018-10-16T17:43:48.900Z,16.19
2018-10-16T17:46:17.156Z,14.98
2018-10-16T17:48:45.263Z,14.39
2018-10-16T17:51:13.470Z,14.57
2018-10-16T17:53:41.534Z,14.62
2018-10-16T17:56:09.989Z,14.71
2018-10-16T17:58:38.984Z,14.72
2018-10-16T18:01:07.161Z,14.76
2018-10-16T18:03:35.332Z,14.63
2018-10-16T18:06:03.488Z,14.33
2018-10-16T18:08:31.681Z,14.21
2018-10-16T18:10:59.837Z,14.08
2018-10-16T18:13:27.986Z,14.02
2018-10-16T18:15:56.179Z,13.96
2018-10-16T18:18:24.315Z,13.84
2018-10-16T18:20:52.463Z,13.68
2018-10-16T18:23:20.582Z,13.53
2018-10-16T18:25:48.775Z,13.48
2018-10-16T18:28:17.429Z,13.41
2018-10-16T18:30:45.564Z,13.25
2018-10-16T18:33:13.712Z,13.17
2018-10-16T18:35:41.916Z,13.31
2018-10-16T18:38:10.200Z,13.08
2018-10-16T18:40:38.313Z,12.97
2018-10-16T18:43:06.823Z,12.90
2018-10-16T18:45:34.960Z,12.73
2018-10-16T18:48:03.082Z,12.60
2018-10-16T18:50:31.205Z,12.54
2018-10-16T18:52:59.405Z,12.56
2018-10-16T18:55:27.579Z,12.59
2018-10-16T18:57:55.712Z,12.59
2018-10-16T19:00:23.839Z,12.57
2018-10-16T19:02:52.025Z,12.43
2018-10-16T19:05:20.137Z,12.39
2018-10-16T19:07:48.399Z,12.36
2018-10-16T19:10:16.464Z,12.78
2018-10-16T19:12:44.592Z,12.78
2018-10-16T19:15:14.133Z,13.17
2018-10-16T19:17:43.007Z,12.93
2018-10-16T19:20:12.219Z,12.68
2018-10-16T19:22:40.704Z,12.29
2018-10-16T19:25:09.673Z,12.16
2018-10-16T19:27:37.863Z,12.08
2018-10-16T19:30:07.206Z,12.02
2018-10-16T19:32:35.508Z,11.98
2018-10-16T19:35:03.625Z,11.94
2018-10-16T19:37:31.785Z,11.83
2018-10-16T19:39:59.858Z,11.76
2018-10-16T19:42:28.029Z,11.72
2018-10-16T19:44:56.199Z,11.95
2018-10-16T19:47:24.328Z,12.06
2018-10-16T19:49:53.748Z,12.03
2018-10-16T19:52:21.879Z,11.78
2018-10-16T19:54:50.006Z,11.19
2018-10-16T19:57:18.153Z,10.44
2018-10-16T19:59:46.300Z,10.53
2018-10-16T20:02:14.420Z,10.69
2018-10-16T20:04:42.709Z,10.75
2018-10-16T20:07:10.893Z,10.77
2018-10-16T20:09:38.966Z,10.72
2018-10-16T20:12:07.273Z,10.74
2018-10-16T20:14:35.477Z,10.71
2018-10-16T20:17:03.658Z,10.67
2018-10-16T20:19:31.824Z,10.69
2018-10-16T20:21:59.946Z,10.66
2018-10-16T20:24:28.110Z,10.61
2018-10-16T20:26:56.391Z,10.68
2018-10-16T20:29:24.506Z,10.93
2018-10-16T20:31:52.697Z,11.18
2018-10-16T20:34:20.822Z,11.00
2018-10-16T20:36:48.949Z,10.68
2018-10-16T20:39:17.185Z,9.92
2018-10-16T20:41:45.309Z,9.79
2018-10-16T20:44:13.440Z,9.56
2018-10-16T20:46:42.345Z,9.66
2018-10-16T20:49:10.503Z,9.76
2018-10-16T20:51:38.598Z,9.79
2018-10-16T20:54:06.762Z,9.81
2018-10-16T20:56:34.872Z,9.85
2018-10-16T20:59:02.985Z,9.81
2018-10-16T21:01:31.172Z,9.73
2018-10-16T21:03:59.297Z,9.73
2018-10-16T21:06:28.010Z,9.71
2018-10-16T21:08:55.957Z,9.70
2018-10-16T21:11:24.080Z,9.72
2018-10-16T21:13:52.664Z,9.70
2018-10-16T21:16:20.773Z,9.63
2018-10-16T21:18:49.010Z,9.53
2018-10-16T21:21:17.183Z,9.44
2018-10-16T21:23:45.334Z,9.34
2018-10-16T21:26:13.457Z,9.25
2018-10-16T21:28:41.662Z,9.19
2018-10-16T21:31:09.877Z,9.18
2018-10-16T21:33:37.928Z,9.24
2018-10-16T21:36:06.272Z,9.22
2018-10-16T21:38:34.437Z,9.17
2018-10-16T21:41:03.445Z,9.13
2018-10-16T21:43:31.508Z,9.07
2018-10-16T21:45:59.609Z,8.99
2018-10-16T21:48:27.772Z,8.97
2018-10-16T21:50:55.879Z,8.92
2018-10-16T21:53:23.997Z,8.92
2018-10-16T21:55:52.141Z,8.91
2018-10-16T21:58:20.250Z,8.89
2018-10-16T22:00:53.714Z,8.89
2018-10-16T22:03:21.864Z,8.83
2018-10-16T22:05:49.981Z,8.78
2018-10-16T22:08:18.189Z,8.80
2018-10-16T22:10:46.312Z,8.73
2018-10-16T22:13:14.538Z,8.60
2018-10-16T22:15:42.616Z,8.56
2018-10-16T22:18:10.742Z,8.51
2018-10-16T22:20:38.864Z,8.44
2018-10-16T22:23:07.018Z,8.48
2018-10-16T22:25:35.163Z,8.95
2018-10-16T22:28:03.277Z,8.97
2018-10-16T22:30:31.413Z,8.87
2018-10-16T22:32:59.627Z,8.84
2018-10-16T22:35:27.752Z,8.75
2018-10-16T22:37:55.885Z,8.65
2018-10-16T22:40:24.062Z,9.16
2018-10-16T22:42:52.276Z,9.27
2018-10-16T22:45:20.403Z,9.09
2018-10-16T22:47:48.513Z,8.90
2018-10-16T22:50:16.641Z,8.72
2018-10-16T22:52:44.820Z,8.51
2018-10-16T22:55:12.958Z,8.32
2018-10-16T22:57:41.039Z,8.17
2018-10-16T23:00:14.398Z,8.27
2018-10-16T23:02:42.933Z,8.32
2018-10-16T23:05:11.097Z,8.76
2018-10-16T23:07:39.293Z,8.84
2018-10-16T23:10:07.557Z,8.75
2018-10-16T23:12:35.704Z,8.58
2018-10-16T23:15:03.868Z,8.35
2018-10-16T23:17:32.005Z,8.32
2018-10-16T23:20:00.112Z,8.21
2018-10-16T23:22:28.242Z,8.07
2018-10-16T23:24:56.395Z,8.09
2018-10-16T23:27:24.480Z,8.23
2018-10-16T23:29:52.719Z,8.50
2018-10-16T23:32:20.828Z,8.62
2018-10-16T23:34:49.225Z,8.55
2018-10-16T23:37:17.465Z,8.27
2018-10-16T23:39:45.521Z,7.92
2018-10-16T23:42:13.657Z,7.55
2018-10-16T23:44:41.789Z,7.60
2018-10-16T23:47:10.002Z,7.75
2018-10-16T23:49:38.218Z,7.94
2018-10-16T23:52:06.324Z,8.13
2018-10-16T23:54:34.873Z,8.15
2018-10-16T23:57:03.948Z,8.23
2018-10-16T23:59:32.156Z,8.00
